createdAt,value
2017-04-13T00:00:27.807Z,0
2017-04-13T00:01:08.285Z,0
2017-04-13T00:01:48.725Z,0
2017-04-13T00:02:29.172Z,0
2017-04-13T00:03:09.589Z,0
2017-04-13T00:03:50.036Z,0
2017-04-13T00:04:30.478Z,0
2017-04-13T00:05:10.901Z,0
2017-04-13T00:07:29.591Z,0
2017-04-13T00:08:10.097Z,0
2017-04-13T00:10:27.841Z,0
2017-04-13T00:11:08.317Z,0
2017-04-13T00:11:48.784Z,0
2017-04-13T00:12:29.222Z,0
2017-04-13T00:13:09.647Z,0
2017-04-13T00:13:50.096Z,0
2017-04-13T00:14:30.548Z,0
2017-04-13T00:15:11.005Z,0
2017-04-13T00:15:51.467Z,0
2017-04-13T00:16:31.901Z,0
2017-04-13T00:17:12.347Z,0
2017-04-13T00:17:52.826Z,0
2017-04-13T00:18:33.230Z,0
2017-04-13T00:19:13.681Z,0
2017-04-13T00:19:54.178Z,0
2017-04-13T00:22:12.009Z,0
2017-04-13T00:22:52.429Z,0
2017-04-13T00:23:32.911Z,0
2017-04-13T00:24:13.403Z,0
2017-04-13T00:24:53.883Z,0
2017-04-13T00:25:34.373Z,0
2017-04-13T00:26:14.874Z,0
2017-04-13T00:26:55.939Z,0
2017-04-13T00:29:23.798Z,0
2017-04-13T00:30:04.278Z,0
2017-04-13T00:30:44.777Z,0
2017-04-13T00:31:25.235Z,0
2017-04-13T00:32:05.767Z,0
2017-04-13T00:32:46.224Z,0
2017-04-13T00:33:26.683Z,0
2017-04-13T00:34:07.128Z,0
2017-04-13T00:34:47.586Z,0
2017-04-13T00:35:28.029Z,0
2017-04-13T00:36:08.475Z,0
2017-04-13T00:36:48.923Z,0
2017-04-13T00:37:29.402Z,0
2017-04-13T00:38:09.847Z,0
2017-04-13T00:38:50.291Z,0
2017-04-13T00:39:30.707Z,0
2017-04-13T00:40:11.125Z,0
2017-04-13T00:40:51.578Z,0
2017-04-13T00:41:32.000Z,0
2017-04-13T00:42:12.454Z,0
2017-04-13T00:42:53.025Z,0
2017-04-13T00:43:33.453Z,0
2017-04-13T00:44:13.949Z,0
2017-04-13T00:44:54.401Z,0
2017-04-13T00:45:34.856Z,0
2017-04-13T00:46:15.316Z,0
2017-04-13T00:46:55.773Z,0
2017-04-13T00:49:23.709Z,0
2017-04-13T00:50:04.140Z,0
2017-04-13T00:50:44.600Z,0
2017-04-13T00:51:25.103Z,0
2017-04-13T00:52:05.566Z,0
2017-04-13T00:52:46.011Z,0
2017-04-13T00:53:26.475Z,0
2017-04-13T00:54:07.023Z,0
2017-04-13T00:54:47.390Z,0
2017-04-13T00:55:27.861Z,0
2017-04-13T00:56:08.273Z,0
2017-04-13T00:56:48.790Z,0
2017-04-13T00:57:29.159Z,0
2017-04-13T00:58:09.587Z,0
2017-04-13T00:58:50.043Z,0
2017-04-13T00:59:30.445Z,0
2017-04-13T01:00:10.885Z,0
2017-04-13T01:00:51.303Z,0
2017-04-13T01:01:31.747Z,0
2017-04-13T01:02:12.218Z,0
2017-04-13T01:02:52.643Z,0
2017-04-13T01:03:33.103Z,0
2017-04-13T01:04:13.559Z,0
2017-04-13T01:04:54.086Z,0
2017-04-13T01:05:34.507Z,0
2017-04-13T01:06:14.933Z,0
2017-04-13T01:06:55.391Z,0
2017-04-13T01:07:35.845Z,0
2017-04-13T01:08:16.302Z,0
2017-04-13T01:10:28.998Z,0
2017-04-13T01:11:09.472Z,0
2017-04-13T01:11:49.938Z,0
2017-04-13T01:12:31.020Z,0
2017-04-13T01:13:11.439Z,0
2017-04-13T01:13:51.876Z,0
2017-04-13T01:14:32.333Z,0
2017-04-13T01:15:12.755Z,0
2017-04-13T01:15:53.160Z,0
2017-04-13T01:18:10.948Z,0
2017-04-13T01:18:51.390Z,0
2017-04-13T01:19:31.834Z,0
2017-04-13T01:20:12.300Z,0
2017-04-13T01:20:52.731Z,0
2017-04-13T01:21:33.170Z,0
2017-04-13T01:22:13.633Z,0
2017-04-13T01:22:54.136Z,0
2017-04-13T01:23:34.556Z,0
2017-04-13T01:24:15.008Z,0
2017-04-13T01:24:55.474Z,0
2017-04-13T01:25:35.928Z,0
2017-04-13T01:26:16.365Z,0
2017-04-13T01:26:56.790Z,0
2017-04-13T01:27:37.285Z,0
2017-04-13T01:28:17.737Z,0
2017-04-13T01:28:58.208Z,0
2017-04-13T01:29:38.657Z,0
2017-04-13T01:30:19.106Z,0
2017-04-13T01:30:59.539Z,0
2017-04-13T01:31:39.998Z,0
2017-04-13T01:33:57.824Z,0
2017-04-13T01:34:38.346Z,0
2017-04-13T01:35:18.771Z,0
2017-04-13T01:35:59.253Z,0
2017-04-13T01:36:39.750Z,0
2017-04-13T01:37:20.216Z,0
2017-04-13T01:38:00.712Z,0
2017-04-13T01:38:41.202Z,0
2017-04-13T01:39:21.665Z,0
2017-04-13T01:40:02.112Z,0
2017-04-13T01:40:42.606Z,0
2017-04-13T01:43:15.590Z,0
2017-04-13T01:43:56.059Z,0
2017-04-13T01:44:36.536Z,0
2017-04-13T01:45:16.973Z,0
2017-04-13T01:45:57.428Z,0
2017-04-13T01:46:37.843Z,0
2017-04-13T01:47:18.278Z,0
2017-04-13T01:47:59.575Z,0
2017-04-13T01:48:40.855Z,0
2017-04-13T01:49:21.300Z,0
2017-04-13T01:50:01.752Z,0
2017-04-13T01:50:42.177Z,0
2017-04-13T01:51:22.600Z,0
2017-04-13T01:52:03.013Z,0
2017-04-13T01:52:43.444Z,0
2017-04-13T01:53:23.915Z,0
2017-04-13T01:54:04.386Z,0
2017-04-13T01:54:44.830Z,0
2017-04-13T01:55:25.248Z,0
2017-04-13T01:56:05.720Z,0
2017-04-13T01:58:33.672Z,0
2017-04-13T01:59:14.141Z,0
2017-04-13T01:59:54.602Z,0
2017-04-13T02:00:35.308Z,0
2017-04-13T02:01:15.771Z,0
2017-04-13T02:01:56.255Z,0
2017-04-13T02:02:36.740Z,0
2017-04-13T02:03:17.220Z,0
2017-04-13T02:03:57.718Z,0
2017-04-13T02:04:38.230Z,0
2017-04-13T02:05:18.654Z,0
2017-04-13T02:05:59.096Z,0
2017-04-13T02:06:39.558Z,0
2017-04-13T02:09:07.501Z,0
2017-04-13T02:11:40.704Z,0
2017-04-13T02:13:38.331Z,0
2017-04-13T02:14:18.786Z,0
2017-04-13T02:14:59.216Z,0
2017-04-13T02:17:17.066Z,0
2017-04-13T02:17:57.532Z,0
2017-04-13T02:18:38.021Z,0
2017-04-13T02:19:18.486Z,0
2017-04-13T02:19:58.926Z,0
2017-04-13T02:20:39.394Z,0
2017-04-13T02:21:19.812Z,0
2017-04-13T02:22:00.264Z,0
2017-04-13T02:22:40.715Z,0
2017-04-13T02:23:21.159Z,0
2017-04-13T02:24:01.640Z,0
2017-04-13T02:24:42.106Z,0
2017-04-13T02:25:22.551Z,0
2017-04-13T02:26:03.010Z,0
2017-04-13T02:26:43.462Z,0
2017-04-13T02:27:23.935Z,0
2017-04-13T02:28:04.379Z,0
2017-04-13T02:28:44.831Z,0
2017-04-13T02:29:25.292Z,0
2017-04-13T02:30:05.752Z,0
2017-04-13T02:30:46.152Z,0
2017-04-13T02:31:26.628Z,0
2017-04-13T02:32:07.038Z,0
2017-04-13T02:32:47.495Z,0
2017-04-13T02:33:27.943Z,0
2017-04-13T02:34:08.405Z,0
2017-04-13T02:34:48.828Z,0
2017-04-13T02:35:29.260Z,0
2017-04-13T02:36:09.733Z,0
2017-04-13T02:36:50.171Z,0
2017-04-13T02:37:30.657Z,0
2017-04-13T02:38:11.134Z,0
2017-04-13T02:38:51.610Z,0
2017-04-13T02:39:32.061Z,0
2017-04-13T02:40:12.524Z,0
2017-04-13T02:40:53.029Z,0
2017-04-13T02:41:33.446Z,0
2017-04-13T02:42:13.913Z,0
2017-04-13T02:42:54.358Z,0
2017-04-13T02:43:34.815Z,0
2017-04-13T02:44:15.261Z,0
2017-04-13T02:44:55.661Z,0
2017-04-13T02:45:36.120Z,0
2017-04-13T02:46:16.584Z,0
2017-04-13T02:48:14.221Z,0
2017-04-13T02:48:54.728Z,0
2017-04-13T02:49:35.216Z,0
2017-04-13T02:50:15.660Z,0
2017-04-13T02:52:33.481Z,0
2017-04-13T02:53:14.037Z,0
2017-04-13T02:53:54.500Z,0
2017-04-13T02:54:34.941Z,0
2017-04-13T02:55:15.376Z,0
2017-04-13T02:55:55.810Z,0
2017-04-13T02:56:36.229Z,0
2017-04-13T02:57:16.649Z,0
2017-04-13T02:59:34.597Z,0
2017-04-13T03:00:15.008Z,0
2017-04-13T03:00:55.475Z,0
2017-04-13T03:01:35.927Z,0
2017-04-13T03:02:16.383Z,0
2017-04-13T03:02:56.839Z,0
2017-04-13T03:03:37.317Z,0
2017-04-13T03:06:05.294Z,0
2017-04-13T03:06:45.702Z,0
2017-04-13T03:07:26.198Z,0
2017-04-13T03:08:06.571Z,0
2017-04-13T03:08:47.036Z,0
2017-04-13T03:09:27.478Z,0
2017-04-13T03:10:07.942Z,0
2017-04-13T03:10:48.354Z,0
2017-04-13T03:11:28.797Z,0
2017-04-13T03:12:09.226Z,0
2017-04-13T03:12:49.695Z,0
2017-04-13T03:13:30.125Z,0
2017-04-13T03:14:10.586Z,0
2017-04-13T03:14:51.040Z,0
2017-04-13T03:15:31.470Z,0
2017-04-13T03:16:11.904Z,0
2017-04-13T03:16:52.362Z,0
2017-04-13T03:17:32.825Z,0
2017-04-13T03:18:13.295Z,0
2017-04-13T03:18:53.737Z,0
2017-04-13T03:19:34.209Z,0
2017-04-13T03:20:14.667Z,0
2017-04-13T03:20:55.172Z,0
2017-04-13T03:23:12.975Z,0
2017-04-13T03:23:53.442Z,0
2017-04-13T03:24:33.909Z,0
2017-04-13T03:25:14.391Z,0
2017-04-13T03:25:54.909Z,0
2017-04-13T03:26:35.333Z,0
2017-04-13T03:27:15.787Z,0
2017-04-13T03:29:33.566Z,0
2017-04-13T03:30:14.048Z,0
2017-04-13T03:30:54.545Z,0
2017-04-13T03:31:35.032Z,0
2017-04-13T03:32:15.436Z,0
2017-04-13T03:32:55.881Z,0
2017-04-13T03:33:36.338Z,0
2017-04-13T03:34:16.755Z,0
2017-04-13T03:34:57.234Z,0
2017-04-13T03:35:37.674Z,0
2017-04-13T03:36:18.137Z,0
2017-04-13T03:36:58.605Z,0
2017-04-13T03:37:39.013Z,0
2017-04-13T03:38:19.568Z,0
2017-04-13T03:39:00.003Z,0
2017-04-13T03:39:40.439Z,0
2017-04-13T03:40:20.928Z,0
2017-04-13T03:41:01.360Z,0
2017-04-13T03:41:41.805Z,0
2017-04-13T03:42:22.259Z,0
2017-04-13T03:44:34.957Z,0
2017-04-13T03:45:15.464Z,0
2017-04-13T03:45:55.913Z,0
2017-04-13T03:48:23.836Z,0
2017-04-13T03:49:04.284Z,0
2017-04-13T03:49:44.739Z,0
2017-04-13T03:50:25.193Z,0
2017-04-13T03:51:05.642Z,0
2017-04-13T03:51:46.074Z,0
2017-04-13T03:52:26.523Z,0
2017-04-13T03:53:06.968Z,0
2017-04-13T03:53:47.462Z,0
2017-04-13T03:54:27.858Z,0
2017-04-13T03:55:08.295Z,0
2017-04-13T03:55:48.764Z,0
2017-04-13T03:56:29.170Z,0
2017-04-13T03:57:09.612Z,0
2017-04-13T03:57:50.047Z,0
2017-04-13T03:58:30.480Z,0
2017-04-13T03:59:10.921Z,0
2017-04-13T03:59:51.368Z,0
2017-04-13T04:00:31.802Z,0
2017-04-13T04:02:29.449Z,0
2017-04-13T04:03:09.982Z,0
2017-04-13T04:03:50.448Z,0
2017-04-13T04:04:30.930Z,0
2017-04-13T04:05:11.428Z,0
2017-04-13T04:05:51.903Z,0
2017-04-13T04:06:32.376Z,0
2017-04-13T04:07:12.833Z,0
2017-04-13T04:07:53.361Z,0
2017-04-13T04:08:33.747Z,0
2017-04-13T04:09:14.190Z,0
2017-04-13T04:09:54.631Z,0
2017-04-13T04:10:35.098Z,0
2017-04-13T04:11:16.126Z,0
2017-04-13T04:11:56.558Z,0
2017-04-13T04:12:37.020Z,4
2017-04-13T04:14:34.658Z,4
2017-04-13T04:15:15.126Z,0
2017-04-13T04:15:55.688Z,4
2017-04-13T04:16:36.147Z,4
2017-04-13T04:17:16.575Z,4
2017-04-13T04:17:57.006Z,4
2017-04-13T04:18:37.470Z,4
2017-04-13T04:19:17.865Z,8
2017-04-13T04:19:58.352Z,8
2017-04-13T04:20:38.788Z,8
2017-04-13T04:21:19.249Z,12
2017-04-13T04:23:16.977Z,12
2017-04-13T04:23:57.303Z,16
2017-04-13T04:24:37.744Z,12
2017-04-13T04:25:18.175Z,16
2017-04-13T04:25:58.643Z,16
2017-04-13T04:26:39.064Z,20
2017-04-13T04:27:19.490Z,24
2017-04-13T04:27:59.907Z,24
2017-04-13T04:28:40.353Z,28
2017-04-13T04:29:20.818Z,24
2017-04-13T04:30:01.278Z,28
2017-04-13T04:30:41.722Z,32
2017-04-13T04:31:22.950Z,36
2017-04-13T04:32:03.366Z,40
2017-04-13T04:32:43.815Z,44
2017-04-13T04:33:24.264Z,48
2017-04-13T04:34:04.721Z,48
2017-04-13T04:34:45.137Z,56
2017-04-13T04:35:25.560Z,60
2017-04-13T04:36:06.014Z,64
2017-04-13T04:36:46.455Z,72
2017-04-13T04:37:26.925Z,76
2017-04-13T04:38:07.370Z,80
2017-04-13T04:38:47.831Z,88
2017-04-13T04:39:28.302Z,96
2017-04-13T04:40:08.745Z,100
2017-04-13T04:40:49.196Z,112
2017-04-13T04:41:29.624Z,120
2017-04-13T04:42:10.068Z,132
2017-04-13T04:42:50.496Z,140
2017-04-13T04:43:30.944Z,152
2017-04-13T04:44:11.406Z,160
2017-04-13T04:44:51.845Z,172
2017-04-13T04:45:32.311Z,184
2017-04-13T04:46:12.736Z,196
2017-04-13T04:46:54.161Z,204
2017-04-13T04:47:34.607Z,212
2017-04-13T04:48:15.051Z,228
2017-04-13T04:48:55.480Z,236
2017-04-13T04:51:13.293Z,272
2017-04-13T04:51:53.750Z,288
2017-04-13T04:52:34.228Z,296
2017-04-13T04:53:14.685Z,308
2017-04-13T04:53:55.121Z,328
2017-04-13T04:54:35.567Z,340
2017-04-13T04:55:15.994Z,348
2017-04-13T04:55:56.436Z,360
2017-04-13T04:56:36.895Z,372
2017-04-13T04:57:17.321Z,392
2017-04-13T04:57:57.761Z,412
2017-04-13T04:58:38.228Z,428
2017-04-13T04:59:18.682Z,452
2017-04-13T04:59:59.148Z,476
2017-04-13T05:00:39.554Z,500
2017-04-13T05:01:20.068Z,524
2017-04-13T05:02:00.509Z,548
2017-04-13T05:02:40.951Z,572
2017-04-13T05:03:21.429Z,592
2017-04-13T05:04:01.911Z,620
2017-04-13T05:04:42.344Z,652
2017-04-13T05:05:22.757Z,672
2017-04-13T05:06:03.277Z,700
2017-04-13T05:06:43.668Z,736
2017-04-13T05:07:24.120Z,768
2017-04-13T05:08:04.596Z,808
2017-04-13T05:08:45.034Z,832
2017-04-13T05:09:25.464Z,876
2017-04-13T05:10:05.915Z,924
2017-04-13T05:12:33.911Z,1160
2017-04-13T05:13:14.264Z,1208
2017-04-13T05:13:54.722Z,1256
2017-04-13T05:16:27.757Z,1280
2017-04-13T05:17:08.233Z,1312
2017-04-13T05:17:49.418Z,1360
2017-04-13T05:18:29.878Z,1428
2017-04-13T05:19:10.352Z,1452
2017-04-13T05:19:50.807Z,1484
2017-04-13T05:20:31.254Z,1496
2017-04-13T05:21:11.701Z,1516
2017-04-13T05:21:52.138Z,1532
2017-04-13T05:22:32.619Z,1636
2017-04-13T05:23:13.081Z,1752
2017-04-13T05:23:53.543Z,1884
2017-04-13T05:25:51.233Z,2228
2017-04-13T05:26:31.689Z,2208
2017-04-13T05:27:12.161Z,2200
2017-04-13T05:27:52.661Z,2204
2017-04-13T05:28:33.130Z,2220
2017-04-13T05:29:13.622Z,2212
2017-04-13T05:29:54.059Z,2200
2017-04-13T05:30:34.507Z,2164
2017-04-13T05:31:14.952Z,2180
2017-04-13T05:31:55.422Z,2172
2017-04-13T05:32:35.888Z,2088
2017-04-13T05:33:16.336Z,2040
2017-04-13T05:33:56.799Z,1972
2017-04-13T05:34:37.248Z,2012
2017-04-13T05:35:17.710Z,2028
2017-04-13T05:35:58.156Z,2148
2017-04-13T05:36:38.621Z,2256
2017-04-13T05:37:19.042Z,2304
2017-04-13T05:37:59.499Z,2364
2017-04-13T05:38:39.953Z,2468
2017-04-13T05:39:20.465Z,2548
2017-04-13T05:40:00.916Z,2600
2017-04-13T05:40:41.340Z,2656
2017-04-13T05:41:21.827Z,2692
2017-04-13T05:43:19.522Z,2960
2017-04-13T05:44:00.029Z,2992
2017-04-13T05:44:40.531Z,3032
2017-04-13T05:45:21.003Z,3108
2017-04-13T05:46:01.446Z,3188
2017-04-13T05:46:41.900Z,3308
2017-04-13T05:47:22.306Z,3552
2017-04-13T05:48:02.798Z,3672
2017-04-13T05:50:20.597Z,4212
2017-04-13T05:51:01.080Z,4452
2017-04-13T05:51:41.571Z,4704
2017-04-13T05:52:22.054Z,4836
2017-04-13T05:53:02.532Z,4916
2017-04-13T05:53:42.994Z,4928
2017-04-13T05:54:23.443Z,4900
2017-04-13T05:55:03.855Z,4880
2017-04-13T05:55:44.310Z,4868
2017-04-13T05:56:24.738Z,4940
2017-04-13T05:57:05.182Z,4904
2017-04-13T05:57:45.636Z,4944
2017-04-13T05:58:26.059Z,5040
2017-04-13T05:59:06.498Z,5156
2017-04-13T05:59:46.947Z,5228
2017-04-13T06:00:27.401Z,5292
2017-04-13T06:01:07.838Z,5288
2017-04-13T06:01:48.333Z,5328
2017-04-13T06:02:28.845Z,5288
2017-04-13T06:03:09.297Z,5272
2017-04-13T06:03:49.746Z,5204
2017-04-13T06:04:30.776Z,5152
2017-04-13T06:05:11.226Z,5204
2017-04-13T06:05:51.689Z,5280
2017-04-13T06:06:32.143Z,5248
2017-04-13T06:07:12.671Z,5228
2017-04-13T06:09:30.487Z,5084
2017-04-13T06:10:10.978Z,5132
2017-04-13T06:10:51.447Z,5220
2017-04-13T06:11:31.934Z,5300
2017-04-13T06:12:12.409Z,5344
2017-04-13T06:12:52.903Z,5312
2017-04-13T06:13:33.362Z,5272
2017-04-13T06:14:13.869Z,5148
2017-04-13T06:14:54.315Z,4984
2017-04-13T06:15:34.764Z,4968
2017-04-13T06:16:15.205Z,5180
2017-04-13T06:16:55.629Z,5320
2017-04-13T06:17:36.080Z,5476
2017-04-13T06:18:16.532Z,5688
2017-04-13T06:18:56.951Z,5700
2017-04-13T06:19:37.402Z,5712
2017-04-13T06:20:17.820Z,5784
2017-04-13T06:20:58.288Z,5880
2017-04-13T06:21:38.716Z,6136
2017-04-13T06:22:19.220Z,6468
2017-04-13T06:22:59.628Z,6652
2017-04-13T06:23:40.081Z,6840
2017-04-13T06:24:20.548Z,7096
2017-04-13T06:25:01.008Z,7244
2017-04-13T06:25:41.429Z,6992
2017-04-13T06:26:21.873Z,6360
2017-04-13T06:27:02.297Z,5512
2017-04-13T06:29:20.105Z,3940
2017-04-13T06:30:00.548Z,3748
2017-04-13T06:30:41.002Z,3584
2017-04-13T06:31:21.450Z,3636
2017-04-13T06:32:01.940Z,3980
2017-04-13T06:32:42.400Z,4440
2017-04-13T06:33:22.903Z,4860
2017-04-13T06:34:03.318Z,5296
2017-04-13T06:34:43.750Z,5796
2017-04-13T06:35:24.209Z,6116
2017-04-13T06:36:04.669Z,6284
2017-04-13T06:36:45.177Z,6200
2017-04-13T06:37:25.589Z,6092
2017-04-13T06:38:06.046Z,5940
2017-04-13T06:38:46.500Z,5972
2017-04-13T06:39:26.973Z,6168
2017-04-13T06:40:07.422Z,6464
2017-04-13T06:40:47.890Z,6684
2017-04-13T06:41:28.330Z,6868
2017-04-13T06:42:08.785Z,7032
2017-04-13T06:42:49.221Z,6928
2017-04-13T06:43:29.661Z,6548
2017-04-13T06:44:10.087Z,6184
2017-04-13T06:44:50.555Z,5912
2017-04-13T06:45:30.976Z,5852
2017-04-13T06:46:11.458Z,5676
2017-04-13T06:46:52.199Z,5488
2017-04-13T06:47:32.672Z,5272
2017-04-13T06:48:13.141Z,5284
2017-04-13T06:48:53.552Z,5504
2017-04-13T06:49:34.012Z,5944
2017-04-13T06:50:15.124Z,6432
2017-04-13T06:50:55.597Z,7124
2017-04-13T06:51:36.047Z,7956
2017-04-13T06:52:16.531Z,8560
2017-04-13T06:52:57.085Z,9256
2017-04-13T06:53:37.629Z,9696
2017-04-13T06:54:18.105Z,9624
2017-04-13T06:54:58.632Z,9380
2017-04-13T06:55:39.129Z,9120
2017-04-13T06:56:19.600Z,8796
2017-04-13T06:57:00.059Z,8656
2017-04-13T06:57:40.518Z,9500
2017-04-13T06:58:21.063Z,8756
2017-04-13T06:59:01.624Z,9300
2017-04-13T06:59:42.159Z,9984
2017-04-13T07:00:22.690Z,10740
2017-04-13T07:01:03.213Z,11404
2017-04-13T07:01:43.709Z,11684
2017-04-13T07:02:24.206Z,11708
2017-04-13T07:03:04.741Z,12048
2017-04-13T07:03:45.219Z,15172
2017-04-13T07:04:25.651Z,14172
2017-04-13T07:05:06.111Z,13356
2017-04-13T07:05:46.582Z,13152
2017-04-13T07:06:27.035Z,12924
2017-04-13T07:07:07.488Z,12772
2017-04-13T07:07:47.913Z,12772
2017-04-13T07:08:28.362Z,11616
2017-04-13T07:09:08.780Z,11232
2017-04-13T07:09:49.231Z,10744
2017-04-13T07:10:29.662Z,10280
2017-04-13T07:11:10.098Z,10276
2017-04-13T07:11:51.111Z,10588
2017-04-13T07:12:31.556Z,10932
2017-04-13T07:13:11.981Z,11120
2017-04-13T07:13:52.448Z,10580
2017-04-13T07:14:32.944Z,10396
2017-04-13T07:15:13.455Z,10660
2017-04-13T07:15:53.912Z,11116
2017-04-13T07:16:34.372Z,11468
2017-04-13T07:17:14.827Z,11368
2017-04-13T07:17:55.339Z,11200
2017-04-13T07:18:35.744Z,11384
2017-04-13T07:19:16.272Z,11732
2017-04-13T07:19:56.704Z,12120
2017-04-13T07:20:37.163Z,12388
2017-04-13T07:21:17.615Z,12284
2017-04-13T07:21:58.046Z,11960
2017-04-13T07:24:25.981Z,11908
2017-04-13T07:25:06.492Z,12052
2017-04-13T07:25:46.905Z,12232
2017-04-13T07:26:27.415Z,12324
2017-04-13T07:28:40.151Z,11264
2017-04-13T07:29:20.626Z,10864
2017-04-13T07:30:01.121Z,10768
2017-04-13T07:30:41.618Z,11040
2017-04-13T07:31:22.052Z,11636
2017-04-13T07:32:02.503Z,12300
2017-04-13T07:32:42.961Z,13152
2017-04-13T07:33:24.044Z,13860
2017-04-13T07:34:04.489Z,14460
2017-04-13T07:34:44.957Z,15460
2017-04-13T07:38:30.038Z,20896
2017-04-13T07:39:10.489Z,18912
2017-04-13T07:39:51.548Z,20448
2017-04-13T07:40:31.968Z,19776
2017-04-13T07:41:12.413Z,19584
2017-04-13T07:41:52.860Z,18016
2017-04-13T07:42:33.333Z,16024
2017-04-13T07:43:13.805Z,15208
2017-04-13T07:43:54.263Z,14492
2017-04-13T07:44:34.763Z,13692
2017-04-13T07:45:15.168Z,13196
2017-04-13T07:45:55.588Z,12840
2017-04-13T07:46:36.039Z,13036
2017-04-13T07:47:16.542Z,12940
2017-04-13T07:47:56.964Z,12692
2017-04-13T07:48:37.408Z,12452
2017-04-13T07:49:17.928Z,12436
2017-04-13T07:49:58.429Z,12740
2017-04-13T07:50:38.877Z,12768
2017-04-13T07:51:19.392Z,12792
2017-04-13T07:51:59.880Z,12960
2017-04-13T07:54:28.005Z,15700
2017-04-13T07:55:08.464Z,15700
2017-04-13T07:55:48.980Z,17824
2017-04-13T07:58:06.836Z,24064
2017-04-13T07:58:47.341Z,23776
2017-04-13T07:59:27.826Z,20960
2017-04-13T08:01:56.135Z,15692
2017-04-13T08:02:36.704Z,14652
2017-04-13T08:03:17.185Z,13424
2017-04-13T08:03:57.811Z,11020
2017-04-13T08:04:38.419Z,10244
2017-04-13T08:05:18.917Z,10604
2017-04-13T08:05:59.448Z,11440
2017-04-13T08:06:39.992Z,12224
2017-04-13T08:07:20.457Z,12884
2017-04-13T08:08:01.129Z,13332
2017-04-13T08:08:41.566Z,13076
2017-04-13T08:09:22.033Z,12988
2017-04-13T08:10:02.545Z,12596
2017-04-13T08:10:43.073Z,11976
2017-04-13T08:11:23.599Z,11512
2017-04-13T08:12:04.121Z,12328
2017-04-13T08:12:44.645Z,13744
2017-04-13T08:13:25.154Z,15476
2017-04-13T08:14:05.813Z,19648
2017-04-13T08:14:46.271Z,20032
2017-04-13T08:15:27.685Z,23648
2017-04-13T08:16:10.058Z,23552
2017-04-13T08:16:50.514Z,24928
2017-04-13T08:17:31.239Z,24896
2017-04-13T08:18:11.678Z,25824
2017-04-13T08:18:52.132Z,22880
2017-04-13T08:19:32.585Z,20288
2017-04-13T08:20:13.066Z,15648
2017-04-13T08:20:53.590Z,21248
2017-04-13T08:21:34.023Z,18176
2017-04-13T08:22:14.525Z,14820
2017-04-13T08:22:54.973Z,19552
2017-04-13T08:23:35.477Z,20288
2017-04-13T08:24:15.957Z,19520
2017-04-13T08:24:56.354Z,21536
2017-04-13T08:25:36.861Z,21408
2017-04-13T08:26:17.384Z,22464
2017-04-13T08:26:57.821Z,22176
2017-04-13T08:27:38.273Z,17696
2017-04-13T08:28:18.775Z,16012
2017-04-13T08:28:59.291Z,15748
2017-04-13T08:29:39.762Z,15156
2017-04-13T08:30:20.383Z,15008
2017-04-13T08:31:01.723Z,15000
2017-04-13T08:31:42.251Z,15464
2017-04-13T08:32:22.741Z,16712
2017-04-13T08:33:03.537Z,18208
2017-04-13T08:33:44.120Z,16448
2017-04-13T08:34:24.672Z,14996
2017-04-13T08:35:05.221Z,15736
2017-04-13T08:35:45.982Z,16940
2017-04-13T08:36:26.458Z,18400
2017-04-13T08:37:06.902Z,19584
2017-04-13T08:37:47.516Z,18976
2017-04-13T08:38:28.332Z,14308
2017-04-13T08:39:08.890Z,12404
2017-04-13T08:39:49.366Z,11664
2017-04-13T08:40:29.818Z,12276
2017-04-13T08:41:11.101Z,13656
2017-04-13T08:41:51.824Z,14488
2017-04-13T08:42:32.306Z,15316
2017-04-13T08:43:12.873Z,15220
2017-04-13T08:43:53.368Z,13924
2017-04-13T08:44:33.893Z,11532
2017-04-13T08:45:14.392Z,9620
2017-04-13T08:45:54.883Z,9000
2017-04-13T08:46:35.471Z,8556
2017-04-13T08:47:16.021Z,8540
2017-04-13T08:47:56.539Z,7880
2017-04-13T08:48:37.031Z,7616
2017-04-13T08:49:17.612Z,7784
2017-04-13T08:49:58.170Z,8252
2017-04-13T08:50:38.685Z,8484
2017-04-13T08:51:19.251Z,8560
2017-04-13T08:51:59.741Z,8976
2017-04-13T08:52:40.467Z,9236
2017-04-13T08:53:21.074Z,9708
2017-04-13T08:54:01.601Z,10040
2017-04-13T08:54:42.108Z,10512
2017-04-13T08:55:22.699Z,11072
2017-04-13T08:56:03.244Z,11724
2017-04-13T08:56:43.771Z,12128
2017-04-13T08:57:24.336Z,12332
2017-04-13T08:58:04.805Z,12716
2017-04-13T08:58:46.224Z,13608
2017-04-13T08:59:26.686Z,15872
2017-04-13T09:00:07.169Z,18560
2017-04-13T09:00:47.645Z,21376
2017-04-13T09:01:28.103Z,22656
2017-04-13T09:02:08.606Z,26272
2017-04-13T09:02:49.038Z,26016
2017-04-13T09:03:29.549Z,21408
2017-04-13T09:04:10.005Z,18656
2017-04-13T09:04:50.461Z,18848
2017-04-13T09:05:30.922Z,23744
2017-04-13T09:06:11.768Z,20224
2017-04-13T09:06:52.123Z,22688
2017-04-13T09:07:32.748Z,42464
2017-04-13T09:08:13.566Z,45888
2017-04-13T09:08:53.984Z,50464
2017-04-13T09:09:34.467Z,54400
2017-04-13T09:10:14.871Z,57312
2017-04-13T09:10:55.350Z,56864
2017-04-13T09:11:35.871Z,56032
2017-04-13T09:12:16.288Z,48928
2017-04-13T09:12:56.717Z,42272
2017-04-13T09:13:37.395Z,39232
2017-04-13T09:14:18.042Z,20480
2017-04-13T09:14:58.518Z,13752
2017-04-13T09:15:39.038Z,11552
2017-04-13T09:16:19.679Z,11848
2017-04-13T09:17:00.021Z,14004
2017-04-13T09:17:40.456Z,15620
2017-04-13T09:18:21.055Z,17920
2017-04-13T09:19:01.468Z,15216
2017-04-13T09:19:41.961Z,12208
2017-04-13T09:20:22.395Z,12292
2017-04-13T09:21:02.852Z,12052
2017-04-13T09:21:43.348Z,12940
2017-04-13T09:22:23.818Z,13052
2017-04-13T09:23:04.305Z,12480
2017-04-13T09:23:44.802Z,11616
2017-04-13T09:24:25.267Z,11068
2017-04-13T09:25:05.700Z,10564
2017-04-13T09:25:46.153Z,10204
2017-04-13T09:26:26.619Z,9992
2017-04-13T09:27:07.175Z,9464
2017-04-13T09:29:40.175Z,16708
2017-04-13T09:30:20.786Z,20352
2017-04-13T09:31:01.465Z,23456
2017-04-13T09:31:41.757Z,20864
2017-04-13T09:32:22.268Z,42048
2017-04-13T09:33:02.742Z,23008
2017-04-13T09:33:43.244Z,32480
2017-04-13T09:34:23.687Z,28416
2017-04-13T09:35:05.136Z,36480
2017-04-13T09:35:45.957Z,47328
2017-04-13T09:36:28.311Z,20192
2017-04-13T09:37:09.023Z,18912
2017-04-13T09:39:08.382Z,23232
2017-04-13T09:41:37.208Z,28416
2017-04-13T09:42:17.825Z,29632
2017-04-13T09:42:58.227Z,35104
2017-04-13T09:43:38.666Z,32608
2017-04-13T09:44:19.107Z,53792
2017-04-13T09:44:59.586Z,25408
2017-04-13T09:45:40.080Z,24544
2017-04-13T09:46:20.573Z,18496
2017-04-13T09:47:01.070Z,17792
2017-04-13T09:47:41.501Z,17332
2017-04-13T09:48:22.696Z,16008
2017-04-13T09:49:04.103Z,16372
2017-04-13T09:49:44.555Z,18112
2017-04-13T09:50:25.020Z,19936
2017-04-13T09:51:05.549Z,26752
2017-04-13T09:51:45.984Z,19936
2017-04-13T09:52:26.597Z,17408
2017-04-13T09:53:08.131Z,17072
2017-04-13T09:53:49.684Z,19328
2017-04-13T09:54:30.929Z,17372
2017-04-13T09:55:11.413Z,14544
2017-04-13T09:55:51.915Z,13832
2017-04-13T09:56:32.437Z,14508
2017-04-13T09:57:12.921Z,20000
2017-04-13T09:57:53.416Z,21120
2017-04-13T09:58:33.939Z,20320
2017-04-13T09:59:14.473Z,21344
2017-04-13T09:59:54.989Z,22752
2017-04-13T10:00:35.432Z,22656
2017-04-13T10:01:15.929Z,28288
2017-04-13T10:01:56.421Z,26528
2017-04-13T10:02:37.421Z,23872
2017-04-13T10:05:05.425Z,33312
2017-04-13T10:05:45.941Z,34528
2017-04-13T10:06:27.040Z,45280
2017-04-13T10:07:07.515Z,57824
2017-04-13T10:07:48.225Z,57600
2017-04-13T10:08:28.765Z,26176
2017-04-13T10:09:09.233Z,24160
2017-04-13T10:09:49.694Z,22272
2017-04-13T10:10:30.155Z,20960
2017-04-13T10:11:10.698Z,20416
2017-04-13T10:11:51.171Z,19840
2017-04-13T10:12:32.628Z,18176
2017-04-13T10:13:13.116Z,16760
2017-04-13T10:13:53.622Z,15024
2017-04-13T10:14:34.009Z,13880
2017-04-13T10:15:14.502Z,13036
2017-04-13T10:17:32.340Z,9636
2017-04-13T10:18:12.852Z,9580
2017-04-13T10:18:53.317Z,10204
2017-04-13T10:19:33.793Z,11416
2017-04-13T10:21:51.990Z,11900
2017-04-13T10:22:32.534Z,11356
2017-04-13T10:23:13.023Z,10660
2017-04-13T10:23:53.632Z,9892
2017-04-13T10:24:34.128Z,9896
2017-04-13T10:25:14.622Z,10624
2017-04-13T10:25:55.096Z,12664
2017-04-13T10:26:35.564Z,16428
2017-04-13T10:27:16.028Z,20672
2017-04-13T10:27:56.489Z,35488
2017-04-13T10:28:36.941Z,37152
2017-04-13T10:31:04.879Z,17760
2017-04-13T10:31:45.306Z,16344
2017-04-13T10:32:25.776Z,15152
2017-04-13T10:33:06.272Z,13652
2017-04-13T10:33:46.729Z,13212